createdAt,value
2017-11-27T00:00:05.294Z,69.70
2017-11-27T00:02:33.333Z,69.90
2017-11-27T00:05:02.169Z,69.80
2017-11-27T00:07:30.184Z,69.80
2017-11-27T00:09:58.203Z,69.00
2017-11-27T00:12:27.010Z,69.40
2017-11-27T00:14:55.810Z,69.30
2017-11-27T00:17:24.604Z,69.10
2017-11-27T00:19:53.435Z,68.90
2017-11-27T00:22:29.002Z,68.90
2017-11-27T00:24:57.018Z,69.30
2017-11-27T00:27:25.045Z,69.40
2017-11-27T00:29:53.824Z,69.90
2017-11-27T00:32:22.044Z,69.80
2017-11-27T00:34:50.065Z,69.10
2017-11-27T00:37:18.079Z,69.30
2017-11-27T00:39:46.119Z,69.30
2017-11-27T00:42:14.132Z,68.80
2017-11-27T00:44:42.169Z,68.80
2017-11-27T00:47:10.196Z,68.70
2017-11-27T00:49:38.237Z,68.40
2017-11-27T00:52:06.243Z,68.50
2017-11-27T00:54:34.308Z,68.40
2017-11-27T00:57:03.064Z,68.60
2017-11-27T00:59:31.137Z,68.50
2017-11-27T01:01:59.149Z,68.80
2017-11-27T01:04:27.936Z,68.50
2017-11-27T01:06:55.973Z,68.40
2017-11-27T01:09:23.980Z,69.40
2017-11-27T01:11:52.048Z,68.50
2017-11-27T01:14:20.073Z,67.80
2017-11-27T01:16:48.859Z,68.60
2017-11-27T01:19:16.885Z,68.50
2017-11-27T01:21:44.904Z,68.90
2017-11-27T01:24:12.939Z,68.90
2017-11-27T01:26:41.712Z,68.40
2017-11-27T01:29:09.762Z,68.30
2017-11-27T01:31:37.746Z,68.50
2017-11-27T01:34:05.734Z,68.40
2017-11-27T01:36:33.750Z,68.60
2017-11-27T01:39:02.520Z,68.10
2017-11-27T01:41:30.502Z,68.00
2017-11-27T01:43:58.520Z,68.20
2017-11-27T01:46:27.268Z,68.80
2017-11-27T01:48:55.249Z,68.80
2017-11-27T01:51:23.261Z,68.70
2017-11-27T01:53:51.246Z,68.30
2017-11-27T01:56:19.231Z,68.30
2017-11-27T01:58:48.786Z,68.70
2017-11-27T02:01:16.753Z,68.70
2017-11-27T02:03:45.506Z,68.70
2017-11-27T02:06:13.538Z,68.60
2017-11-27T02:08:42.289Z,69.10
2017-11-27T02:11:10.277Z,69.10
2017-11-27T02:13:38.306Z,68.20
2017-11-27T02:16:07.049Z,68.70
2017-11-27T02:18:35.050Z,68.60
2017-11-27T02:21:03.064Z,68.50
2017-11-27T02:23:31.827Z,69.70
2017-11-27T02:25:59.824Z,69.60
2017-11-27T02:28:27.840Z,69.10
2017-11-27T02:30:55.838Z,68.70
2017-11-27T02:33:23.817Z,68.30
2017-11-27T02:35:51.838Z,68.70
2017-11-27T02:38:19.827Z,68.30
2017-11-27T02:40:47.809Z,68.40
2017-11-27T02:43:15.841Z,68.90
2017-11-27T02:45:43.834Z,68.50
2017-11-27T02:48:11.815Z,68.80
2017-11-27T02:50:39.852Z,68.70
2017-11-27T02:53:07.831Z,68.70
2017-11-27T02:55:37.319Z,68.90
2017-11-27T02:58:05.438Z,68.90
2017-11-27T03:00:33.420Z,68.80
2017-11-27T03:03:01.407Z,69.30
2017-11-27T03:05:29.423Z,68.70
2017-11-27T03:07:57.404Z,68.60
2017-11-27T03:10:25.397Z,68.40
2017-11-27T03:12:53.432Z,69.00
2017-11-27T03:15:21.450Z,68.90
2017-11-27T03:17:49.430Z,68.90
2017-11-27T03:20:17.458Z,68.60
2017-11-27T03:22:45.449Z,69.30
2017-11-27T03:25:13.448Z,68.70
2017-11-27T03:27:41.457Z,68.80
2017-11-27T03:30:09.439Z,69.30
2017-11-27T03:32:38.187Z,68.10
2017-11-27T03:35:06.208Z,68.10
2017-11-27T03:37:34.966Z,67.30
2017-11-27T03:40:02.950Z,67.30
2017-11-27T03:42:30.965Z,67.30
2017-11-27T03:44:59.722Z,67.30
2017-11-27T03:47:27.705Z,67.30
2017-11-27T03:49:55.753Z,67.30
2017-11-27T03:52:24.514Z,68.00
2017-11-27T03:54:52.518Z,67.90
2017-11-27T03:57:20.550Z,68.10
2017-11-27T03:59:48.533Z,67.30
2017-11-27T04:02:16.514Z,67.30
2017-11-27T04:04:44.521Z,67.30
2017-11-27T04:07:12.527Z,67.30
2017-11-27T04:09:40.510Z,67.30
2017-11-27T04:12:08.530Z,67.40
2017-11-27T04:14:36.509Z,67.30
2017-11-27T04:17:04.488Z,67.30
2017-11-27T04:19:32.514Z,67.30
2017-11-27T04:22:00.493Z,67.40
2017-11-27T04:24:28.473Z,67.40
2017-11-27T04:26:56.502Z,67.40
2017-11-27T04:29:25.258Z,67.30
2017-11-27T04:31:53.240Z,67.30
2017-11-27T04:34:21.257Z,67.40
2017-11-27T04:36:50.018Z,67.50
2017-11-27T04:39:17.995Z,67.40
2017-11-27T04:41:46.013Z,67.40
2017-11-27T04:44:13.995Z,67.20
2017-11-27T04:46:41.981Z,67.30
2017-11-27T04:49:09.994Z,68.10
2017-11-27T04:51:37.977Z,67.40
2017-11-27T04:54:05.954Z,66.90
2017-11-27T04:56:33.966Z,67.30
2017-11-27T04:59:01.952Z,67.20
2017-11-27T05:01:29.935Z,66.40
2017-11-27T05:03:57.941Z,66.00
2017-11-27T05:06:25.930Z,65.60
2017-11-27T05:08:53.915Z,65.20
2017-11-27T05:11:21.930Z,65.50
2017-11-27T05:13:49.920Z,65.40
2017-11-27T05:16:17.897Z,65.90
2017-11-27T05:18:45.910Z,66.10
2017-11-27T05:21:13.894Z,67.20
2017-11-27T05:23:41.873Z,66.90
2017-11-27T05:26:09.889Z,67.20
2017-11-27T05:28:37.874Z,67.20
2017-11-27T05:31:05.861Z,67.10
2017-11-27T05:33:33.873Z,67.20
2017-11-27T05:36:01.854Z,66.60
2017-11-27T05:38:29.845Z,67.10
2017-11-27T05:40:57.998Z,67.00
2017-11-27T05:43:25.985Z,67.10
2017-11-27T05:45:54.738Z,67.10
2017-11-27T05:48:22.760Z,66.90
2017-11-27T05:50:51.530Z,67.00
2017-11-27T05:53:19.517Z,66.90
2017-11-27T05:55:48.257Z,66.90
2017-11-27T05:58:17.006Z,67.10
2017-11-27T06:00:44.986Z,67.00
2017-11-27T06:03:12.990Z,65.80
2017-11-27T06:05:42.481Z,66.40
2017-11-27T06:08:10.470Z,66.30
2017-11-27T06:10:38.507Z,65.90
2017-11-27T06:13:07.254Z,64.60
2017-11-27T06:15:35.238Z,64.50
2017-11-27T06:18:03.271Z,64.70
2017-11-27T06:20:32.025Z,65.00
2017-11-27T06:22:59.993Z,64.90
2017-11-27T06:25:28.005Z,64.70
2017-11-27T06:27:55.995Z,65.10
2017-11-27T06:30:23.982Z,64.80
2017-11-27T06:32:52.085Z,64.50
2017-11-27T06:35:20.847Z,65.20
2017-11-27T06:37:48.824Z,64.50
2017-11-27T06:40:16.866Z,64.40
2017-11-27T06:42:44.851Z,64.30
2017-11-27T06:45:12.835Z,63.90
2017-11-27T06:47:40.867Z,63.90
2017-11-27T06:50:08.850Z,63.50
2017-11-27T06:52:36.825Z,64.10
2017-11-27T06:55:04.855Z,64.10
2017-11-27T06:57:33.593Z,63.80
2017-11-27T07:00:01.578Z,63.70
2017-11-27T07:02:29.602Z,63.60
2017-11-27T07:04:58.352Z,63.40
2017-11-27T07:07:26.348Z,63.30
2017-11-27T07:09:54.375Z,64.00
2017-11-27T07:12:23.137Z,64.30
2017-11-27T07:14:51.135Z,64.30
2017-11-27T07:17:19.142Z,64.30
2017-11-27T07:19:47.888Z,65.00
2017-11-27T07:22:15.870Z,64.80
2017-11-27T07:24:43.890Z,64.70
2017-11-27T07:27:11.873Z,63.60
2017-11-27T07:29:39.854Z,64.80
2017-11-27T07:32:07.887Z,63.50
2017-11-27T07:34:35.867Z,64.00
2017-11-27T07:37:03.845Z,63.60
2017-11-27T07:39:37.603Z,63.30
2017-11-27T07:42:05.588Z,64.10
2017-11-27T07:44:33.566Z,64.90
2017-11-27T07:47:01.585Z,64.00
2017-11-27T07:49:30.335Z,65.00
2017-11-27T07:51:58.314Z,64.90
2017-11-27T07:54:26.443Z,65.70
2017-11-27T07:56:55.198Z,66.50
2017-11-27T07:59:23.181Z,65.90
2017-11-27T08:01:51.206Z,65.60
2017-11-27T08:04:19.954Z,65.60
2017-11-27T08:06:47.938Z,64.90
2017-11-27T08:09:16.165Z,65.40
2017-11-27T08:11:44.154Z,65.60
2017-11-27T08:14:12.133Z,65.20
2017-11-27T08:16:40.150Z,64.40
2017-11-27T08:19:08.125Z,63.90
2017-11-27T08:21:36.117Z,64.20
2017-11-27T08:24:04.577Z,62.40
2017-11-27T08:26:32.552Z,63.40
2017-11-27T08:29:00.540Z,64.10
2017-11-27T08:31:28.561Z,63.40
2017-11-27T08:33:56.553Z,64.10
2017-11-27T08:36:24.538Z,63.90
2017-11-27T08:38:52.555Z,64.00
2017-11-27T08:41:20.541Z,64.60
2017-11-27T08:43:48.518Z,65.30
2017-11-27T08:46:16.534Z,64.70
2017-11-27T08:48:45.299Z,63.90
2017-11-27T08:51:13.274Z,63.90
2017-11-27T08:53:42.910Z,64.60
2017-11-27T08:56:10.952Z,64.40
2017-11-27T08:58:38.906Z,65.00
2017-11-27T09:01:07.689Z,64.00
2017-11-27T09:03:36.451Z,63.80
2017-11-27T09:06:04.445Z,63.50
2017-11-27T09:08:32.438Z,64.70
2017-11-27T09:11:00.414Z,63.30
2017-11-27T09:13:28.409Z,63.80
2017-11-27T09:15:56.431Z,67.60
2017-11-27T09:18:24.437Z,64.00
2017-11-27T09:20:52.430Z,62.90
2017-11-27T09:23:20.468Z,61.20
2017-11-27T09:25:49.217Z,60.30
2017-11-27T09:28:17.198Z,60.30
2017-11-27T09:30:45.213Z,60.10
2017-11-27T09:33:13.212Z,61.50
2017-11-27T09:35:41.953Z,59.80
2017-11-27T09:38:09.983Z,59.70
2017-11-27T09:40:38.738Z,59.80
2017-11-27T09:43:06.726Z,59.70
2017-11-27T09:45:34.745Z,59.40
2017-11-27T09:48:02.726Z,60.00
2017-11-27T09:50:30.863Z,59.50
2017-11-27T09:52:58.850Z,58.70
2017-11-27T09:55:26.838Z,58.70
2017-11-27T09:57:54.822Z,59.10
2017-11-27T10:00:22.846Z,59.20
2017-11-27T10:02:51.995Z,58.70
2017-11-27T10:05:19.971Z,58.70
2017-11-27T10:07:47.969Z,58.70
2017-11-27T10:10:15.970Z,59.40
2017-11-27T10:12:44.038Z,58.90
2017-11-27T10:15:12.860Z,59.00
2017-11-27T10:17:40.845Z,58.90
2017-11-27T10:20:08.829Z,59.00
2017-11-27T10:22:36.877Z,57.60
2017-11-27T10:25:04.859Z,58.10
2017-11-27T10:27:32.838Z,57.50
2017-11-27T10:30:00.850Z,57.70
2017-11-27T10:32:28.829Z,58.50
2017-11-27T10:34:56.834Z,58.60
2017-11-27T10:37:24.861Z,58.10
2017-11-27T10:39:52.845Z,56.40
2017-11-27T10:42:20.841Z,56.20
2017-11-27T10:44:48.865Z,55.10
2017-11-27T10:47:16.843Z,54.20
2017-11-27T10:49:44.817Z,54.20
2017-11-27T10:52:14.358Z,55.90
2017-11-27T10:54:43.121Z,54.70
2017-11-27T10:57:11.109Z,55.30
2017-11-27T10:59:39.122Z,54.00
2017-11-27T11:02:07.098Z,54.80
2017-11-27T11:04:35.085Z,55.50
2017-11-27T11:07:03.101Z,54.90
2017-11-27T11:09:31.092Z,55.80
2017-11-27T11:11:59.086Z,56.40
2017-11-27T11:14:27.145Z,55.50
2017-11-27T11:16:55.147Z,55.90
2017-11-27T11:19:23.137Z,55.30
2017-11-27T11:21:51.157Z,55.60
2017-11-27T11:24:19.141Z,55.90
2017-11-27T11:26:47.151Z,55.30
2017-11-27T11:29:15.930Z,55.30
2017-11-27T11:31:43.926Z,55.30
2017-11-27T11:34:12.670Z,56.00
2017-11-27T11:36:40.679Z,56.00
2017-11-27T11:39:08.660Z,56.20
2017-11-27T11:41:36.641Z,55.90
2017-11-27T11:44:06.157Z,55.80
2017-11-27T11:46:34.137Z,55.70
2017-11-27T11:49:02.117Z,55.50
2017-11-27T11:51:30.154Z,56.00
2017-11-27T11:53:58.160Z,56.10
2017-11-27T11:56:26.142Z,56.60
2017-11-27T11:58:54.166Z,57.00
2017-11-27T12:01:22.216Z,57.50
2017-11-27T12:03:50.930Z,57.60
2017-11-27T12:06:18.937Z,57.60
2017-11-27T12:08:46.922Z,57.60
2017-11-27T12:11:15.283Z,58.30
2017-11-27T12:13:43.294Z,58.30
2017-11-27T12:16:12.041Z,58.80
2017-11-27T12:18:40.038Z,58.50
2017-11-27T12:21:08.046Z,58.10
2017-11-27T12:23:36.038Z,57.90
2017-11-27T12:26:04.010Z,57.60
2017-11-27T12:28:32.066Z,57.80
2017-11-27T12:31:00.050Z,57.30
2017-11-27T12:33:28.030Z,56.90
2017-11-27T12:35:56.053Z,56.20
2017-11-27T12:38:24.066Z,56.00
2017-11-27T12:40:52.082Z,55.90
2017-11-27T12:43:20.102Z,56.90
2017-11-27T12:45:48.849Z,58.30
2017-11-27T12:48:16.834Z,57.60
2017-11-27T12:50:44.842Z,56.30
2017-11-27T12:53:12.826Z,57.80
2017-11-27T12:55:40.813Z,57.70
2017-11-27T12:58:08.822Z,58.70
2017-11-27T13:00:37.586Z,59.60
2017-11-27T13:03:05.565Z,59.60
2017-11-27T13:05:33.594Z,61.90
2017-11-27T13:08:02.347Z,62.20
2017-11-27T13:10:30.326Z,62.10
2017-11-27T13:12:58.347Z,62.60
2017-11-27T13:15:27.096Z,64.20
2017-11-27T13:17:55.102Z,63.20
2017-11-27T13:20:23.132Z,63.80
2017-11-27T13:22:51.889Z,63.80
2017-11-27T13:25:19.874Z,63.80
2017-11-27T13:27:47.910Z,64.30
2017-11-27T13:30:15.881Z,65.20
2017-11-27T13:32:43.869Z,65.10
2017-11-27T13:35:11.874Z,66.50
2017-11-27T13:37:39.859Z,68.00
2017-11-27T13:40:07.842Z,68.40
2017-11-27T13:42:35.857Z,68.50
2017-11-27T13:45:03.838Z,69.00
2017-11-27T13:47:31.817Z,69.30
2017-11-27T13:49:59.846Z,70.30
2017-11-27T13:52:27.837Z,71.30
2017-11-27T13:54:55.817Z,72.00
2017-11-27T13:57:23.838Z,73.70
2017-11-27T13:59:51.858Z,72.90
2017-11-27T14:02:21.197Z,75.70
2017-11-27T14:04:49.274Z,75.60
2017-11-27T14:07:17.258Z,75.20
2017-11-27T14:09:45.246Z,75.90
2017-11-27T14:12:13.361Z,75.40
2017-11-27T14:14:41.941Z,76.30
2017-11-27T14:17:09.921Z,77.30
2017-11-27T14:19:38.053Z,77.20
2017-11-27T14:22:06.038Z,78.60
2017-11-27T14:24:34.021Z,77.30
2017-11-27T14:27:02.039Z,78.70
2017-11-27T14:29:30.021Z,79.20
2017-11-27T14:31:58.007Z,78.80
2017-11-27T14:34:26.020Z,79.70
2017-11-27T14:36:54.005Z,78.60
2017-11-27T14:39:22.006Z,79.80
2017-11-27T14:41:50.023Z,79.50
2017-11-27T14:44:18.054Z,80.00
2017-11-27T14:46:46.029Z,80.60
2017-11-27T14:49:14.044Z,81.00
2017-11-27T14:51:42.050Z,80.80
2017-11-27T14:54:10.832Z,81.80
2017-11-27T14:56:38.822Z,81.70
2017-11-27T14:59:06.825Z,81.60
2017-11-27T15:01:35.574Z,81.60
2017-11-27T15:04:03.586Z,81.50
2017-11-27T15:06:32.346Z,82.60
2017-11-27T15:09:00.328Z,82.60
2017-11-27T15:11:28.333Z,82.90
2017-11-27T15:13:57.821Z,82.90
2017-11-27T15:16:25.810Z,82.80
2017-11-27T15:18:53.827Z,83.20
2017-11-27T15:21:21.806Z,83.50
2017-11-27T15:23:49.791Z,83.00
2017-11-27T15:26:17.822Z,83.80
2017-11-27T15:28:45.813Z,84.30
2017-11-27T15:31:15.096Z,84.80
2017-11-27T15:33:43.938Z,85.10
2017-11-27T15:36:11.930Z,84.90
2017-11-27T15:38:39.914Z,85.50
2017-11-27T15:41:07.938Z,85.30
2017-11-27T15:43:36.679Z,84.90
2017-11-27T15:46:04.662Z,84.80
2017-11-27T15:48:32.698Z,85.20
2017-11-27T15:51:01.446Z,85.20
2017-11-27T15:53:29.440Z,85.10
2017-11-27T15:55:57.655Z,85.00
2017-11-27T15:58:25.645Z,84.50
2017-11-27T16:00:54.397Z,84.40
2017-11-27T16:03:22.426Z,84.30
2017-11-27T16:05:51.184Z,84.50
2017-11-27T16:08:19.165Z,84.50
2017-11-27T16:10:47.196Z,84.00
2017-11-27T16:13:15.198Z,83.40
2017-11-27T16:15:43.177Z,82.60
2017-11-27T16:18:11.201Z,83.50
2017-11-27T16:20:39.173Z,83.50
2017-11-27T16:23:07.154Z,82.40
2017-11-27T16:25:39.564Z,83.00
2017-11-27T16:28:18.614Z,82.30
2017-11-27T16:30:47.454Z,82.00
2017-11-27T16:33:15.439Z,81.70
2017-11-27T16:35:43.423Z,82.20
2017-11-27T16:38:11.437Z,80.60
2017-11-27T16:40:39.426Z,81.10
2017-11-27T16:43:07.435Z,81.00
2017-11-27T16:45:35.482Z,80.80
2017-11-27T16:48:03.462Z,80.10
2017-11-27T16:50:31.471Z,80.20
2017-11-27T16:52:59.474Z,79.50
2017-11-27T16:55:27.451Z,81.00
2017-11-27T16:57:55.464Z,80.40
2017-11-27T17:00:24.240Z,80.10
2017-11-27T17:02:52.238Z,80.00
2017-11-27T17:05:21.005Z,78.30
2017-11-27T17:07:49.035Z,78.30
2017-11-27T17:10:17.014Z,79.50
2017-11-27T17:12:44.994Z,79.40
2017-11-27T17:15:13.523Z,78.60
2017-11-27T17:17:41.490Z,77.50
2017-11-27T17:20:09.478Z,77.50
2017-11-27T17:22:37.499Z,77.90
2017-11-27T17:25:05.494Z,77.60
2017-11-27T17:27:33.478Z,78.90
2017-11-27T17:30:01.504Z,77.60
2017-11-27T17:32:29.490Z,77.40
2017-11-27T17:34:57.488Z,77.60
2017-11-27T17:37:25.523Z,78.10
2017-11-27T17:39:54.274Z,77.60
2017-11-27T17:42:22.266Z,77.60
2017-11-27T17:44:51.516Z,78.20
2017-11-27T17:47:20.280Z,77.10
2017-11-27T17:49:48.257Z,77.00
2017-11-27T17:52:16.278Z,78.60
2017-11-27T17:54:45.025Z,77.60
2017-11-27T17:57:13.014Z,77.50
2017-11-27T17:59:41.187Z,77.60
2017-11-27T18:02:09.143Z,77.60
2017-11-27T18:04:37.125Z,77.50
2017-11-27T18:07:05.158Z,77.60
2017-11-27T18:09:33.169Z,77.60
2017-11-27T18:12:01.919Z,78.40
2017-11-27T18:14:29.961Z,78.30
2017-11-27T18:16:58.740Z,79.40
2017-11-27T18:19:26.708Z,79.40
2017-11-27T18:21:54.714Z,79.80
2017-11-27T18:24:23.490Z,80.60
2017-11-27T18:26:52.319Z,80.10
2017-11-27T18:29:21.115Z,78.80
2017-11-27T18:31:49.098Z,78.70
2017-11-27T18:34:17.097Z,78.40
2017-11-27T18:36:45.970Z,79.60
2017-11-27T18:39:13.936Z,78.70
2017-11-27T18:41:41.926Z,78.90
2017-11-27T18:44:09.934Z,78.80
2017-11-27T18:46:37.941Z,79.80
2017-11-27T18:49:06.674Z,80.50
2017-11-27T18:51:34.686Z,80.40
2017-11-27T18:54:04.170Z,80.20
2017-11-27T18:56:32.162Z,80.10
2017-11-27T18:59:00.201Z,81.00
2017-11-27T19:01:28.970Z,79.70
2017-11-27T19:03:56.942Z,79.60
2017-11-27T19:06:24.964Z,81.00
2017-11-27T19:08:52.987Z,80.40
2017-11-27T19:11:21.040Z,80.90
2017-11-27T19:13:49.087Z,80.10
2017-11-27T19:16:17.065Z,80.30
2017-11-27T19:18:45.050Z,79.30
2017-11-27T19:21:13.242Z,78.40
2017-11-27T19:23:41.222Z,80.80
2017-11-27T19:26:09.230Z,79.90
2017-11-27T19:28:38.026Z,82.30
2017-11-27T19:31:06.780Z,82.50
2017-11-27T19:33:34.762Z,82.40
2017-11-27T19:36:02.849Z,82.00
2017-11-27T19:38:30.842Z,82.00
2017-11-27T19:40:58.879Z,81.30
2017-11-27T19:43:27.064Z,81.90
2017-11-27T19:45:55.054Z,81.90
2017-11-27T19:48:23.038Z,81.00
2017-11-27T19:50:51.066Z,80.90
2017-11-27T19:53:19.059Z,81.10
2017-11-27T19:55:47.479Z,80.80
2017-11-27T19:58:15.488Z,81.00
2017-11-27T20:00:43.517Z,81.50
2017-11-27T20:03:11.505Z,81.30
2017-11-27T20:05:39.514Z,80.70
2017-11-27T20:08:07.496Z,81.90
2017-11-27T20:10:35.474Z,82.50
2017-11-27T20:13:03.550Z,81.60
2017-11-27T20:15:31.566Z,82.20
2017-11-27T20:17:59.550Z,82.90
2017-11-27T20:20:27.570Z,82.60
2017-11-27T20:22:55.571Z,82.40
2017-11-27T20:25:24.349Z,84.20
2017-11-27T20:27:52.391Z,84.20
2017-11-27T20:30:20.391Z,83.10
2017-11-27T20:32:48.395Z,82.40
2017-11-27T20:35:16.402Z,82.40
2017-11-27T20:37:45.167Z,83.00
2017-11-27T20:40:13.185Z,82.90
2017-11-27T20:42:41.202Z,82.80
2017-11-27T20:45:09.186Z,83.00
2017-11-27T20:47:37.174Z,83.20
2017-11-27T20:50:05.315Z,82.50
2017-11-27T20:52:34.061Z,83.20
2017-11-27T20:55:02.045Z,83.20
2017-11-27T20:57:30.074Z,82.70
2017-11-27T20:59:58.055Z,81.90
2017-11-27T21:02:26.038Z,81.90
2017-11-27T21:04:54.229Z,82.30
2017-11-27T21:07:22.985Z,82.40
2017-11-27T21:09:50.961Z,82.30
2017-11-27T21:12:18.990Z,82.50
2017-11-27T21:14:46.970Z,83.20
2017-11-27T21:17:14.967Z,83.50
2017-11-27T21:19:42.970Z,82.50
2017-11-27T21:22:10.948Z,83.50
2017-11-27T21:24:38.937Z,83.60
2017-11-27T21:27:06.963Z,83.20
2017-11-27T21:29:34.937Z,83.20
2017-11-27T21:32:02.951Z,83.50
2017-11-27T21:34:31.133Z,84.20
2017-11-27T21:36:59.124Z,84.60
2017-11-27T21:39:27.102Z,83.70
2017-11-27T21:41:56.669Z,83.60
2017-11-27T21:44:24.650Z,83.60
2017-11-27T21:46:52.654Z,83.90
2017-11-27T21:49:20.886Z,83.50
2017-11-27T21:51:49.638Z,83.90
2017-11-27T21:54:17.621Z,83.80
2017-11-27T21:56:45.649Z,84.20
2017-11-27T21:59:14.402Z,83.40
2017-11-27T22:01:42.381Z,83.30
2017-11-27T22:04:10.394Z,83.90
2017-11-27T22:06:38.395Z,83.50
2017-11-27T22:09:07.150Z,84.70
2017-11-27T22:11:35.270Z,84.70
2017-11-27T22:14:03.281Z,84.60
2017-11-27T22:16:31.282Z,85.70
2017-11-27T22:18:59.421Z,84.10
2017-11-27T22:21:27.415Z,84.50
2017-11-27T22:23:55.394Z,84.00
2017-11-27T22:26:24.178Z,84.10
2017-11-27T22:28:52.170Z,83.50
2017-11-27T22:31:20.163Z,83.50
2017-11-27T22:33:48.196Z,85.20
2017-11-27T22:36:16.162Z,85.50
2017-11-27T22:38:44.149Z,85.80
2017-11-27T22:41:12.172Z,84.40
2017-11-27T22:43:40.152Z,85.00
2017-11-27T22:46:08.133Z,85.00
2017-11-27T22:48:36.135Z,84.80
2017-11-27T22:51:04.887Z,85.10
2017-11-27T22:53:32.880Z,85.10
2017-11-27T22:56:00.998Z,84.60
2017-11-27T22:58:28.990Z,85.40
2017-11-27T23:00:57.738Z,86.40
2017-11-27T23:03:25.770Z,87.00
2017-11-27T23:05:54.522Z,86.00
2017-11-27T23:08:22.510Z,85.60
2017-11-27T23:10:50.530Z,84.90
2017-11-27T23:13:19.279Z,85.40
2017-11-27T23:15:47.734Z,85.40
2017-11-27T23:18:16.514Z,85.10
2017-11-27T23:20:44.505Z,85.10
2017-11-27T23:23:12.483Z,86.30
2017-11-27T23:25:40.497Z,86.60
2017-11-27T23:28:08.490Z,86.40
2017-11-27T23:30:36.470Z,86.40
2017-11-27T23:33:04.492Z,86.40
2017-11-27T23:35:32.476Z,86.40
2017-11-27T23:38:00.465Z,85.20
2017-11-27T23:40:28.494Z,86.50
2017-11-27T23:42:56.474Z,86.40
2017-11-27T23:45:24.480Z,86.50
2017-11-27T23:47:52.622Z,86.30
2017-11-27T23:50:21.372Z,84.30
2017-11-27T23:52:49.361Z,84.30
2017-11-27T23:55:17.366Z,85.60
2017-11-27T23:57:45.353Z,86.50
